<?xml version="1.0" encoding="UTF-8"?>
<gpx creator="Wikiloc - https://www.wikiloc.com" version="1.1" xmlns="http://www.topografix.com/GPX/1/1" xmlns:xsi="http://www.w3.org/2001/XMLSchema-instance" xsi:schemaLocation="http://www.topografix.com/GPX/1/1 http://www.topografix.com/GPX/1/1/gpx.xsd">
  <trk>
    <name>Ruta de Sant Serni del Grau al Santuari de Lord</name>
    <cmt></cmt>
    <desc></desc>
    <trkseg>
      <trkpt lat="42.133549" lon="1.572720">
        <ele>1102.8</ele>
        <time>2011-02-18T07:56:05Z</time>
      </trkpt>
      <trkpt lat="42.133713" lon="1.572256">
        <ele>1095.6</ele>
        <time>2011-02-18T07:59:13Z</time>
      </trkpt>
      <trkpt lat="42.133644" lon="1.571647">
        <ele>1102.3</ele>
        <time>2011-02-18T07:59:48Z</time>
      </trkpt>
      <trkpt lat="42.133640" lon="1.571022">
        <ele>1100.9</ele>
        <time>2011-02-18T08:00:21Z</time>
      </trkpt>
      <trkpt lat="42.133453" lon="1.570403">
        <ele>1098.4</ele>
        <time>2011-02-18T08:01:24Z</time>
      </trkpt>
      <trkpt lat="42.133080" lon="1.570420">
        <ele>1102.8</ele>
        <time>2011-02-18T08:02:10Z</time>
      </trkpt>
      <trkpt lat="42.132675" lon="1.570607">
        <ele>1105.7</ele>
        <time>2011-02-18T08:02:46Z</time>
      </trkpt>
      <trkpt lat="42.132252" lon="1.570507">
        <ele>1109.5</ele>
        <time>2011-02-18T08:03:55Z</time>
      </trkpt>
      <trkpt lat="42.131794" lon="1.570299">
        <ele>1111.4</ele>
        <time>2011-02-18T08:04:32Z</time>
      </trkpt>
      <trkpt lat="42.131393" lon="1.570650">
        <ele>1112.4</ele>
        <time>2011-02-18T08:05:07Z</time>
      </trkpt>
      <trkpt lat="42.130974" lon="1.570903">
        <ele>1113.3</ele>
        <time>2011-02-18T08:05:41Z</time>
      </trkpt>
      <trkpt lat="42.130562" lon="1.571210">
        <ele>1119.1</ele>
        <time>2011-02-18T08:07:13Z</time>
      </trkpt>
      <trkpt lat="42.130203" lon="1.571728">
        <ele>1123.0</ele>
        <time>2011-02-18T08:08:01Z</time>
      </trkpt>
      <trkpt lat="42.129921" lon="1.572172">
        <ele>1130.2</ele>
        <time>2011-02-18T08:09:06Z</time>
      </trkpt>
      <trkpt lat="42.129631" lon="1.572330">
        <ele>1139.8</ele>
        <time>2011-02-18T08:10:21Z</time>
      </trkpt>
      <trkpt lat="42.129601" lon="1.572019">
        <ele>1150.4</ele>
        <time>2011-02-18T08:11:33Z</time>
      </trkpt>
      <trkpt lat="42.129345" lon="1.572104">
        <ele>1163.3</ele>
        <time>2011-02-18T08:13:57Z</time>
      </trkpt>
      <trkpt lat="42.129044" lon="1.572050">
        <ele>1160.5</ele>
        <time>2011-02-18T08:15:28Z</time>
      </trkpt>
      <trkpt lat="42.128902" lon="1.572206">
        <ele>1154.2</ele>
        <time>2011-02-18T08:16:21Z</time>
      </trkpt>
      <trkpt lat="42.128784" lon="1.572839">
        <ele>1142.7</ele>
        <time>2011-02-18T08:17:32Z</time>
      </trkpt>
      <trkpt lat="42.128696" lon="1.573452">
        <ele>1135.0</ele>
        <time>2011-02-18T08:18:22Z</time>
      </trkpt>
      <trkpt lat="42.128490" lon="1.574000">
        <ele>1133.5</ele>
        <time>2011-02-18T08:19:09Z</time>
      </trkpt>
      <trkpt lat="42.128147" lon="1.574442">
        <ele>1134.0</ele>
        <time>2011-02-18T08:19:45Z</time>
      </trkpt>
      <trkpt lat="42.127895" lon="1.574960">
        <ele>1132.1</ele>
        <time>2011-02-18T08:20:18Z</time>
      </trkpt>
      <trkpt lat="42.127457" lon="1.574952">
        <ele>1129.7</ele>
        <time>2011-02-18T08:20:56Z</time>
      </trkpt>
      <trkpt lat="42.127136" lon="1.574593">
        <ele>1127.3</ele>
        <time>2011-02-18T08:21:31Z</time>
      </trkpt>
      <trkpt lat="42.126785" lon="1.575063">
        <ele>1124.9</ele>
        <time>2011-02-18T08:22:05Z</time>
      </trkpt>
      <trkpt lat="42.126438" lon="1.575540">
        <ele>1126.3</ele>
        <time>2011-02-18T08:22:41Z</time>
      </trkpt>
      <trkpt lat="42.126133" lon="1.575132">
        <ele>1131.1</ele>
        <time>2011-02-18T08:23:30Z</time>
      </trkpt>
      <trkpt lat="42.125782" lon="1.574974">
        <ele>1132.6</ele>
        <time>2011-02-18T08:24:09Z</time>
      </trkpt>
      <trkpt lat="42.125366" lon="1.575210">
        <ele>1129.7</ele>
        <time>2011-02-18T08:24:45Z</time>
      </trkpt>
      <trkpt lat="42.124912" lon="1.575321">
        <ele>1126.8</ele>
        <time>2011-02-18T08:25:27Z</time>
      </trkpt>
      <trkpt lat="42.124401" lon="1.575451">
        <ele>1123.0</ele>
        <time>2011-02-18T08:26:14Z</time>
      </trkpt>
      <trkpt lat="42.123875" lon="1.575479">
        <ele>1121.0</ele>
        <time>2011-02-18T08:26:54Z</time>
      </trkpt>
      <trkpt lat="42.123569" lon="1.575924">
        <ele>1121.0</ele>
        <time>2011-02-18T08:27:31Z</time>
      </trkpt>
      <trkpt lat="42.123138" lon="1.576264">
        <ele>1125.8</ele>
        <time>2011-02-18T08:28:10Z</time>
      </trkpt>
      <trkpt lat="42.122677" lon="1.576384">
        <ele>1126.8</ele>
        <time>2011-02-18T08:28:46Z</time>
      </trkpt>
      <trkpt lat="42.122276" lon="1.576458">
        <ele>1127.8</ele>
        <time>2011-02-18T08:29:23Z</time>
      </trkpt>
      <trkpt lat="42.121826" lon="1.576777">
        <ele>1125.8</ele>
        <time>2011-02-18T08:30:01Z</time>
      </trkpt>
      <trkpt lat="42.121414" lon="1.576729">
        <ele>1125.8</ele>
        <time>2011-02-18T08:30:47Z</time>
      </trkpt>
      <trkpt lat="42.121090" lon="1.577203">
        <ele>1127.3</ele>
        <time>2011-02-18T08:31:25Z</time>
      </trkpt>
      <trkpt lat="42.120716" lon="1.577645">
        <ele>1127.8</ele>
        <time>2011-02-18T08:32:03Z</time>
      </trkpt>
      <trkpt lat="42.120258" lon="1.577844">
        <ele>1128.2</ele>
        <time>2011-02-18T08:32:40Z</time>
      </trkpt>
      <trkpt lat="42.120010" lon="1.578313">
        <ele>1132.1</ele>
        <time>2011-02-18T08:33:15Z</time>
      </trkpt>
      <trkpt lat="42.119778" lon="1.578846">
        <ele>1134.5</ele>
        <time>2011-02-18T08:33:51Z</time>
      </trkpt>
      <trkpt lat="42.119549" lon="1.579373">
        <ele>1137.4</ele>
        <time>2011-02-18T08:34:26Z</time>
      </trkpt>
      <trkpt lat="42.119427" lon="1.579944">
        <ele>1139.3</ele>
        <time>2011-02-18T08:35:01Z</time>
      </trkpt>
      <trkpt lat="42.119114" lon="1.580430">
        <ele>1137.4</ele>
        <time>2011-02-18T08:35:37Z</time>
      </trkpt>
      <trkpt lat="42.118828" lon="1.580912">
        <ele>1134.5</ele>
        <time>2011-02-18T08:36:11Z</time>
      </trkpt>
      <trkpt lat="42.118488" lon="1.581404">
        <ele>1130.7</ele>
        <time>2011-02-18T08:36:48Z</time>
      </trkpt>
      <trkpt lat="42.118088" lon="1.581756">
        <ele>1127.8</ele>
        <time>2011-02-18T08:37:24Z</time>
      </trkpt>
      <trkpt lat="42.117737" lon="1.581382">
        <ele>1136.4</ele>
        <time>2011-02-18T08:38:23Z</time>
      </trkpt>
      <trkpt lat="42.117546" lon="1.580863">
        <ele>1147.0</ele>
        <time>2011-02-18T08:39:26Z</time>
      </trkpt>
      <trkpt lat="42.117447" lon="1.581038">
        <ele>1159.5</ele>
        <time>2011-02-18T08:40:47Z</time>
      </trkpt>
      <trkpt lat="42.117245" lon="1.581126">
        <ele>1171.5</ele>
        <time>2011-02-18T08:42:13Z</time>
      </trkpt>
      <trkpt lat="42.117023" lon="1.581123">
        <ele>1183.0</ele>
        <time>2011-02-18T08:44:23Z</time>
      </trkpt>
      <trkpt lat="42.117039" lon="1.581667">
        <ele>1199.4</ele>
        <time>2011-02-18T08:46:30Z</time>
      </trkpt>
      <trkpt lat="42.116795" lon="1.581300">
        <ele>1215.7</ele>
        <time>2011-02-18T08:47:57Z</time>
      </trkpt>
      <trkpt lat="42.116547" lon="1.581133">
        <ele>1227.7</ele>
        <time>2011-02-18T08:49:32Z</time>
      </trkpt>
      <trkpt lat="42.116531" lon="1.581066">
        <ele>1227.3</ele>
        <time>2011-02-18T08:51:31Z</time>
      </trkpt>
      <trkpt lat="42.116199" lon="1.581558">
        <ele>1222.0</ele>
        <time>2011-02-18T08:52:48Z</time>
      </trkpt>
      <trkpt lat="42.115807" lon="1.581729">
        <ele>1217.2</ele>
        <time>2011-02-18T08:53:56Z</time>
      </trkpt>
      <trkpt lat="42.115398" lon="1.581966">
        <ele>1210.9</ele>
        <time>2011-02-18T08:55:08Z</time>
      </trkpt>
      <trkpt lat="42.115288" lon="1.582365">
        <ele>1208.0</ele>
        <time>2011-02-18T08:56:53Z</time>
      </trkpt>
      <trkpt lat="42.115177" lon="1.582769">
        <ele>1203.2</ele>
        <time>2011-02-18T08:57:57Z</time>
      </trkpt>
      <trkpt lat="42.115135" lon="1.583375">
        <ele>1194.6</ele>
        <time>2011-02-18T08:59:15Z</time>
      </trkpt>
      <trkpt lat="42.114853" lon="1.583873">
        <ele>1189.8</ele>
        <time>2011-02-18T08:59:50Z</time>
      </trkpt>
      <trkpt lat="42.115078" lon="1.584250">
        <ele>1184.5</ele>
        <time>2011-02-18T09:00:43Z</time>
      </trkpt>
      <trkpt lat="42.114880" lon="1.584638">
        <ele>1179.7</ele>
        <time>2011-02-18T09:02:50Z</time>
      </trkpt>
      <trkpt lat="42.114609" lon="1.585073">
        <ele>1173.9</ele>
        <time>2011-02-18T09:03:35Z</time>
      </trkpt>
      <trkpt lat="42.114281" lon="1.585460">
        <ele>1167.7</ele>
        <time>2011-02-18T09:04:14Z</time>
      </trkpt>
      <trkpt lat="42.113949" lon="1.585803">
        <ele>1160.9</ele>
        <time>2011-02-18T09:04:54Z</time>
      </trkpt>
      <trkpt lat="42.113598" lon="1.586179">
        <ele>1153.2</ele>
        <time>2011-02-18T09:05:38Z</time>
      </trkpt>
      <trkpt lat="42.113293" lon="1.586735">
        <ele>1145.6</ele>
        <time>2011-02-18T09:06:23Z</time>
      </trkpt>
      <trkpt lat="42.113354" lon="1.587255">
        <ele>1138.8</ele>
        <time>2011-02-18T09:07:16Z</time>
      </trkpt>
      <trkpt lat="42.113743" lon="1.586954">
        <ele>1128.2</ele>
        <time>2011-02-18T09:09:07Z</time>
      </trkpt>
      <trkpt lat="42.113808" lon="1.586577">
        <ele>1117.7</ele>
        <time>2011-02-18T09:10:31Z</time>
      </trkpt>
      <trkpt lat="42.114063" lon="1.586666">
        <ele>1095.6</ele>
        <time>2011-02-18T09:12:37Z</time>
      </trkpt>
      <trkpt lat="42.113941" lon="1.587207">
        <ele>1091.2</ele>
        <time>2011-02-18T09:13:31Z</time>
      </trkpt>
      <trkpt lat="42.113533" lon="1.587463">
        <ele>1081.1</ele>
        <time>2011-02-18T09:14:30Z</time>
      </trkpt>
      <trkpt lat="42.113220" lon="1.587577">
        <ele>1070.6</ele>
        <time>2011-02-18T09:16:13Z</time>
      </trkpt>
      <trkpt lat="42.113346" lon="1.587891">
        <ele>1057.6</ele>
        <time>2011-02-18T09:17:40Z</time>
      </trkpt>
      <trkpt lat="42.113647" lon="1.587865">
        <ele>1042.2</ele>
        <time>2011-02-18T09:18:58Z</time>
      </trkpt>
      <trkpt lat="42.113914" lon="1.587441">
        <ele>1045.6</ele>
        <time>2011-02-18T09:21:40Z</time>
      </trkpt>
      <trkpt lat="42.114208" lon="1.586856">
        <ele>1046.1</ele>
        <time>2011-02-18T09:22:54Z</time>
      </trkpt>
      <trkpt lat="42.114601" lon="1.586359">
        <ele>1053.7</ele>
        <time>2011-02-18T09:23:58Z</time>
      </trkpt>
      <trkpt lat="42.114899" lon="1.585891">
        <ele>1058.6</ele>
        <time>2011-02-18T09:25:01Z</time>
      </trkpt>
      <trkpt lat="42.115204" lon="1.585340">
        <ele>1061.9</ele>
        <time>2011-02-18T09:25:58Z</time>
      </trkpt>
      <trkpt lat="42.115513" lon="1.584855">
        <ele>1068.6</ele>
        <time>2011-02-18T09:27:05Z</time>
      </trkpt>
      <trkpt lat="42.116096" lon="1.584084">
        <ele>1076.3</ele>
        <time>2011-02-18T09:28:37Z</time>
      </trkpt>
      <trkpt lat="42.116455" lon="1.583650">
        <ele>1088.4</ele>
        <time>2011-02-18T09:29:42Z</time>
      </trkpt>
      <trkpt lat="42.116531" lon="1.583353">
        <ele>1099.9</ele>
        <time>2011-02-18T09:31:50Z</time>
      </trkpt>
      <trkpt lat="42.116890" lon="1.582978">
        <ele>1105.2</ele>
        <time>2011-02-18T09:33:51Z</time>
      </trkpt>
      <trkpt lat="42.117252" lon="1.582682">
        <ele>1111.4</ele>
        <time>2011-02-18T09:34:32Z</time>
      </trkpt>
      <trkpt lat="42.117653" lon="1.582262">
        <ele>1117.7</ele>
        <time>2011-02-18T09:35:30Z</time>
      </trkpt>
      <trkpt lat="42.118015" lon="1.581814">
        <ele>1123.9</ele>
        <time>2011-02-18T09:36:23Z</time>
      </trkpt>
      <trkpt lat="42.118366" lon="1.581588">
        <ele>1125.4</ele>
        <time>2011-02-18T09:36:55Z</time>
      </trkpt>
      <trkpt lat="42.118767" lon="1.581128">
        <ele>1129.2</ele>
        <time>2011-02-18T09:37:35Z</time>
      </trkpt>
      <trkpt lat="42.119041" lon="1.580590">
        <ele>1133.1</ele>
        <time>2011-02-18T09:38:14Z</time>
      </trkpt>
      <trkpt lat="42.119411" lon="1.580176">
        <ele>1134.5</ele>
        <time>2011-02-18T09:38:50Z</time>
      </trkpt>
      <trkpt lat="42.119469" lon="1.579546">
        <ele>1135.5</ele>
        <time>2011-02-18T09:39:24Z</time>
      </trkpt>
      <trkpt lat="42.119690" lon="1.579021">
        <ele>1133.1</ele>
        <time>2011-02-18T09:39:57Z</time>
      </trkpt>
      <trkpt lat="42.119900" lon="1.578534">
        <ele>1130.2</ele>
        <time>2011-02-18T09:40:28Z</time>
      </trkpt>
      <trkpt lat="42.120174" lon="1.578021">
        <ele>1127.3</ele>
        <time>2011-02-18T09:41:03Z</time>
      </trkpt>
      <trkpt lat="42.120575" lon="1.577747">
        <ele>1124.4</ele>
        <time>2011-02-18T09:41:37Z</time>
      </trkpt>
      <trkpt lat="42.120972" lon="1.577322">
        <ele>1124.4</ele>
        <time>2011-02-18T09:42:13Z</time>
      </trkpt>
      <trkpt lat="42.121273" lon="1.576857">
        <ele>1123.4</ele>
        <time>2011-02-18T09:42:47Z</time>
      </trkpt>
      <trkpt lat="42.121674" lon="1.576795">
        <ele>1122.5</ele>
        <time>2011-02-18T09:43:22Z</time>
      </trkpt>
      <trkpt lat="42.122185" lon="1.576526">
        <ele>1123.4</ele>
        <time>2011-02-18T09:44:02Z</time>
      </trkpt>
      <trkpt lat="42.122578" lon="1.576345">
        <ele>1122.5</ele>
        <time>2011-02-18T09:44:37Z</time>
      </trkpt>
      <trkpt lat="42.123032" lon="1.576240">
        <ele>1121.5</ele>
        <time>2011-02-18T09:45:10Z</time>
      </trkpt>
      <trkpt lat="42.123444" lon="1.575942">
        <ele>1115.8</ele>
        <time>2011-02-18T09:45:47Z</time>
      </trkpt>
      <trkpt lat="42.123798" lon="1.575533">
        <ele>1115.8</ele>
        <time>2011-02-18T09:46:25Z</time>
      </trkpt>
      <trkpt lat="42.124321" lon="1.575484">
        <ele>1118.2</ele>
        <time>2011-02-18T09:47:04Z</time>
      </trkpt>
      <trkpt lat="42.124805" lon="1.575310">
        <ele>1120.6</ele>
        <time>2011-02-18T09:47:46Z</time>
      </trkpt>
      <trkpt lat="42.125313" lon="1.575253">
        <ele>1124.9</ele>
        <time>2011-02-18T09:48:27Z</time>
      </trkpt>
      <trkpt lat="42.125771" lon="1.575017">
        <ele>1127.3</ele>
        <time>2011-02-18T09:49:04Z</time>
      </trkpt>
      <trkpt lat="42.126137" lon="1.575116">
        <ele>1125.8</ele>
        <time>2011-02-18T09:49:40Z</time>
      </trkpt>
      <trkpt lat="42.126492" lon="1.575454">
        <ele>1119.6</ele>
        <time>2011-02-18T09:50:25Z</time>
      </trkpt>
      <trkpt lat="42.126827" lon="1.575007">
        <ele>1118.2</ele>
        <time>2011-02-18T09:51:01Z</time>
      </trkpt>
      <trkpt lat="42.127151" lon="1.574583">
        <ele>1120.1</ele>
        <time>2011-02-18T09:51:36Z</time>
      </trkpt>
      <trkpt lat="42.127415" lon="1.574899">
        <ele>1122.5</ele>
        <time>2011-02-18T09:52:51Z</time>
      </trkpt>
      <trkpt lat="42.127884" lon="1.574914">
        <ele>1124.9</ele>
        <time>2011-02-18T09:53:34Z</time>
      </trkpt>
      <trkpt lat="42.128147" lon="1.574381">
        <ele>1126.3</ele>
        <time>2011-02-18T09:54:10Z</time>
      </trkpt>
      <trkpt lat="42.128487" lon="1.573979">
        <ele>1125.8</ele>
        <time>2011-02-18T09:54:43Z</time>
      </trkpt>
      <trkpt lat="42.128910" lon="1.573884">
        <ele>1125.4</ele>
        <time>2011-02-18T09:55:16Z</time>
      </trkpt>
      <trkpt lat="42.129498" lon="1.573955">
        <ele>1123.9</ele>
        <time>2011-02-18T09:55:53Z</time>
      </trkpt>
      <trkpt lat="42.129734" lon="1.573381">
        <ele>1119.1</ele>
        <time>2011-02-18T09:56:28Z</time>
      </trkpt>
      <trkpt lat="42.129826" lon="1.572770">
        <ele>1116.2</ele>
        <time>2011-02-18T09:57:00Z</time>
      </trkpt>
      <trkpt lat="42.130077" lon="1.572335">
        <ele>1113.3</ele>
        <time>2011-02-18T09:57:32Z</time>
      </trkpt>
      <trkpt lat="42.130348" lon="1.571728">
        <ele>1110.5</ele>
        <time>2011-02-18T09:58:09Z</time>
      </trkpt>
      <trkpt lat="42.130749" lon="1.571211">
        <ele>1109.0</ele>
        <time>2011-02-18T09:58:48Z</time>
      </trkpt>
      <trkpt lat="42.131191" lon="1.570749">
        <ele>1107.1</ele>
        <time>2011-02-18T09:59:29Z</time>
      </trkpt>
      <trkpt lat="42.131584" lon="1.570433">
        <ele>1106.1</ele>
        <time>2011-02-18T10:00:00Z</time>
      </trkpt>
      <trkpt lat="42.132034" lon="1.570307">
        <ele>1103.7</ele>
        <time>2011-02-18T10:00:34Z</time>
      </trkpt>
      <trkpt lat="42.132492" lon="1.570548">
        <ele>1100.9</ele>
        <time>2011-02-18T10:01:08Z</time>
      </trkpt>
      <trkpt lat="42.132973" lon="1.570563">
        <ele>1096.0</ele>
        <time>2011-02-18T10:01:43Z</time>
      </trkpt>
      <trkpt lat="42.133301" lon="1.570083">
        <ele>1092.2</ele>
        <time>2011-02-18T10:02:20Z</time>
      </trkpt>
      <trkpt lat="42.133625" lon="1.570804">
        <ele>1091.7</ele>
        <time>2011-02-18T10:03:05Z</time>
      </trkpt>
      <trkpt lat="42.133698" lon="1.571477">
        <ele>1093.2</ele>
        <time>2011-02-18T10:03:44Z</time>
      </trkpt>
      <trkpt lat="42.133659" lon="1.572099">
        <ele>1094.1</ele>
        <time>2011-02-18T10:04:16Z</time>
      </trkpt>
      <trkpt lat="42.133587" lon="1.572690">
        <ele>1093.6</ele>
        <time>2011-02-18T10:04:57Z</time>
      </trkpt>
      <trkpt lat="42.133579" lon="1.572752">
        <ele>1093.6</ele>
        <time>2011-02-18T10:05:12Z</time>
      </trkpt>
    </trkseg>
  </trk></gpx>